Time;durP1;ratioP1;P1;durP2;ratioP2;P2;SDS_P1;SDS_P2;PMS_P1;PMS_P2;Temp;Humidity;BMP_temperature;BMP_pressure;BME280_temperature;BME280_humidity;BME280_pressure;Samples;Min_cycle;Max_cycle;Signal;HPM_P1;HPM_P2
2022/09/08 00:00:10;;;;;;;9.98;3.28;;;;;;;14.89;86.72;98858.50;4375256;32;20039;-69
2022/09/08 00:03:01;;;;;;;15.05;3.25;;;;;;;14.94;87.43;98873.09;4383961;32;20059;-69
2022/09/08 00:05:29;;;;;;;7.95;4.00;;;;;;;14.63;91.64;98840.78;4384835;32;20092;-69
2022/09/08 00:07:59;;;;;;;9.85;3.37;;;;;;;14.66;91.02;98837.50;4381383;32;20043;-74
2022/09/08 00:10:26;;;;;;;12.27;3.58;;;;;;;14.39;92.37;98819.78;4414791;32;20034;-69
2022/09/08 00:12:53;;;;;;;8.57;3.95;;;;;;;14.44;91.78;98833.28;4413917;32;20367;-69
2022/09/08 00:15:20;;;;;;;8.77;3.60;;;;;;;14.57;94.51;98863.53;4415108;32;20065;-69
2022/09/08 00:17:47;;;;;;;7.05;4.18;;;;;;;14.66;92.92;98857.31;4414632;32;20052;-69
2022/09/08 00:20:13;;;;;;;5.10;3.12;;;;;;;14.54;91.66;98819.66;4429240;32;20402;-69
2022/09/08 00:22:40;;;;;;;7.55;3.70;;;;;;;14.30;95.09;98859.38;4430324;32;20023;-69
2022/09/08 00:25:07;;;;;;;9.77;4.25;;;;;;;14.58;92.92;98865.16;4429810;32;20052;-69
2022/09/08 00:27:33;;;;;;;7.25;3.72;;;;;;;14.60;93.66;98866.56;4447137;32;20404;-69
2022/09/08 00:30:00;;;;;;;8.02;3.80;;;;;;;14.26;97.69;98863.72;4461671;32;20025;-72
2022/09/08 00:32:26;;;;;;;9.82;3.70;;;;;;;14.11;99.28;98861.88;4466345;32;20102;-69
2022/09/08 00:34:53;;;;;;;9.43;3.95;;;;;;;14.07;98.17;98826.44;4468547;32;20041;-69
2022/09/08 00:37:21;;;;;;;12.07;4.12;;;;;;;14.08;99.79;98851.59;4480108;32;20059;-69
2022/09/08 00:39:48;;;;;;;9.32;4.40;;;;;;;14.16;98.86;98830.16;4479024;32;20033;-74
2022/09/08 00:42:14;;;;;;;8.88;3.62;;;;;;;14.17;96.06;98807.44;4480467;32;20041;-69
2022/09/08 00:44:51;;;;;;;9.75;4.28;;;;;;;14.21;95.71;98801.47;4482050;32;20053;-69
2022/09/08 00:47:34;;;;;;;8.00;4.07;;;;;;;14.37;95.87;98810.31;4481926;32;20036;-69
2022/09/08 00:50:22;;;;;;;9.68;4.72;;;;;;;14.54;96.33;98844.06;4414869;32;20333;-69
2022/09/08 00:53:00;;;;;;;8.95;4.45;;;;;;;14.25;97.63;98807.91;4387610;32;20346;-69
2022/09/08 00:55:32;;;;;;;7.93;3.92;;;;;;;14.24;97.65;98822.56;4355208;32;20416;-68
2022/09/08 00:57:59;;;;;;;8.93;4.30;;;;;;;14.06;96.06;98773.37;4357398;32;20057;-68
2022/09/08 01:00:25;;;;;;;12.80;3.60;;;;;;;14.22;97.14;98830.97;4359255;32;20031;-68
2022/09/08 01:02:52;;;;;;;14.25;4.03;;;;;;;14.22;97.35;98825.56;4332246;32;20040;-68
2022/09/08 01:05:24;;;;;;;18.60;4.00;;;;;;;14.00;99.47;98817.78;4328169;33;20086;-68
2022/09/08 01:13:41;;;;;;;9.15;3.80;;;;;;;14.48;94.22;98844.38;4298487;33;20054;-69
2022/09/08 01:16:08;;;;;;;10.15;3.50;;;;;;;14.13;94.46;98800.94;4297838;33;20163;-74
2022/09/08 01:18:36;;;;;;;16.23;4.40;;;;;;;14.31;95.40;98839.31;4295416;33;20026;-70
2022/09/08 01:21:02;;;;;;;7.62;3.87;;;;;;;14.40;94.58;98843.06;4318880;33;20029;-69
2022/09/08 01:23:56;;;;;;;16.58;5.07;;;;;;;14.13;97.11;98836.13;4347065;32;20473;-69
2022/09/08 01:26:31;;;;;;;6.35;3.75;;;;;;;13.91;97.16;98787.81;4376006;32;20043;-67
2022/09/08 01:29:01;;;;;;;13.65;4.10;;;;;;;14.05;98.36;98828.59;4400753;32;20035;-67
2022/09/08 01:31:30;;;;;;;7.20;3.17;;;;;;;13.94;97.60;98825.13;4371736;32;20044;-68
2022/09/08 01:33:59;;;;;;;6.43;3.80;;;;;;;14.23;92.80;98788.44;4383513;32;20019;-72
2022/09/08 01:36:26;;;;;;;11.25;3.60;;;;;;;14.38;90.36;98822.78;4401773;32;20064;-68
2022/09/08 01:38:52;;;;;;;16.52;3.75;;;;;;;13.95;92.03;98801.59;4423106;32;20029;-68
2022/09/08 01:41:18;;;;;;;11.02;4.22;;;;;;;14.26;92.46;98821.19;4446559;32;20103;-68
2022/09/08 01:43:45;;;;;;;11.05;3.90;;;;;;;14.41;90.30;98824.88;4447215;32;20063;-73
2022/09/08 01:46:11;;;;;;;11.23;4.12;;;;;;;14.17;93.85;98833.72;4445856;32;20052;-68
2022/09/08 01:48:37;;;;;;;8.45;4.05;;;;;;;14.08;92.07;98830.75;4447715;32;20051;-68
2022/09/08 01:51:07;;;;;;;3.97;3.25;;;;;;;13.83;93.19;98782.13;4445987;32;20418;-68
2022/09/08 01:53:34;;;;;;;5.37;3.65;;;;;;;14.20;91.13;98789.00;4432217;32;20048;-68
2022/09/08 01:56:01;;;;;;;8.65;3.78;;;;;;;14.02;92.04;98826.44;4421990;32;20027;-68
2022/09/08 01:58:28;;;;;;;8.45;4.12;;;;;;;14.19;91.89;98830.72;4416483;32;20076;-68
2022/09/08 02:00:56;;;;;;;8.70;3.83;;;;;;;14.39;89.75;98836.03;4416304;32;20026;-68
2022/09/08 02:03:23;;;;;;;8.90;3.75;;;;;;;14.05;89.43;98781.78;4437743;32;20074;-68
2022/09/08 02:05:49;;;;;;;8.15;3.83;;;;;;;14.12;88.22;98782.25;4444168;32;20370;-72
2022/09/08 02:08:15;;;;;;;7.60;3.50;;;;;;;14.46;85.87;98808.62;4445238;32;20945;-69
2022/09/08 02:10:52;;;;;;;9.40;3.45;;;;;;;14.11;90.37;98813.94;4447560;32;20064;-68
2022/09/08 02:13:18;;;;;;;10.82;3.47;;;;;;;14.14;89.61;98797.16;4446502;32;20414;-68
2022/09/08 02:15:44;;;;;;;4.95;3.12;;;;;;;13.43;92.85;98755.78;4445928;32;20485;-73
2022/09/08 02:18:11;;;;;;;10.52;4.43;;;;;;;13.79;90.37;98773.78;4445652;32;20413;-68
2022/09/08 02:20:37;;;;;;;6.10;3.80;;;;;;;13.57;90.88;98755.19;4445807;32;20042;-68
2022/09/08 02:23:03;;;;;;;7.15;3.75;;;;;;;13.78;88.73;98759.41;4445415;32;20034;-68
2022/09/08 02:25:30;;;;;;;6.12;3.80;;;;;;;13.87;88.79;98791.34;4459337;32;20052;-69
2022/09/08 02:27:56;;;;;;;7.35;3.85;;;;;;;14.23;86.09;98802.81;4462476;32;20067;-70
2022/09/08 02:30:23;;;;;;;15.20;5.05;;;;;;;14.19;84.96;98798.22;4464615;32;20045;-68
2022/09/08 02:32:49;;;;;;;13.13;3.97;;;;;;;13.89;83.96;98770.22;4464916;32;20056;-68
2022/09/08 02:35:16;;;;;;;6.28;3.65;;;;;;;14.21;85.00;98801.47;4464508;32;20034;-68
2022/09/08 02:37:43;;;;;;;10.82;3.90;;;;;;;13.68;86.70;98751.34;4464354;32;20074;-68
2022/09/08 02:40:09;;;;;;;8.32;3.65;;;;;;;13.91;86.66;98781.56;4462633;32;20347;-70
2022/09/08 02:42:36;;;;;;;7.12;4.03;;;;;;;13.77;87.38;98757.81;4465844;32;20057;-68
2022/09/08 02:45:03;;;;;;;6.70;2.70;;;;;;;13.76;87.43;98791.38;4465188;32;20067;-69
2022/09/08 02:47:33;;;;;;;12.57;3.22;;;;;;;13.99;84.56;98759.31;4440027;32;20496;-69
2022/09/08 02:50:00;;;;;;;9.35;4.20;;;;;;;14.41;83.38;98795.09;4428172;32;20039;-69
2022/09/08 02:52:28;;;;;;;17.08;3.42;;;;;;;13.93;83.86;98749.63;4429785;32;20046;-68
2022/09/08 02:55:01;;;;;;;9.45;4.40;;;;;;;14.07;84.21;98785.84;4431174;32;20042;-68
2022/09/08 02:57:28;;;;;;;9.43;3.65;;;;;;;13.68;83.57;98740.53;4429265;32;20064;-68
2022/09/08 02:59:54;;;;;;;10.93;3.97;;;;;;;13.61;85.18;98734.63;4431131;32;20034;-67
2022/09/08 03:02:20;;;;;;;6.47;3.10;;;;;;;14.21;83.27;98787.91;4396491;32;20108;-68
2022/09/08 03:04:47;;;;;;;10.13;3.53;;;;;;;13.70;82.83;98748.38;4400750;32;20843;-68
2022/09/08 03:07:13;;;;;;;12.15;3.00;;;;;;;13.99;81.45;98724.97;4399425;32;20035;-68
2022/09/08 03:09:39;;;;;;;8.57;3.87;;;;;;;13.97;83.31;98777.75;4398987;32;20420;-68
2022/09/08 03:12:12;;;;;;;7.68;3.53;;;;;;;13.58;85.44;98743.28;4384516;32;20056;-73
2022/09/08 03:14:38;;;;;;;6.25;3.67;;;;;;;14.01;81.21;98743.63;4395933;32;20074;-69
2022/09/08 03:17:05;;;;;;;8.95;3.58;;;;;;;13.86;83.21;98768.06;4398875;32;20042;-69
2022/09/08 03:19:31;;;;;;;15.88;3.72;;;;;;;13.70;84.18;98764.59;4395886;32;20061;-68
2022/09/08 03:21:58;;;;;;;6.22;3.20;;;;;;;13.89;81.09;98733.13;4408610;32;20395;-68
2022/09/08 03:24:24;;;;;;;4.60;3.05;;;;;;;14.27;77.73;98767.84;4403152;32;20039;-68
2022/09/08 03:26:50;;;;;;;11.65;4.18;;;;;;;13.89;81.26;98756.69;4384916;32;20051;-71
2022/09/08 03:29:17;;;;;;;9.32;3.87;;;;;;;13.28;82.01;98671.97;4392182;32;20049;-68
2022/09/08 03:31:43;;;;;;;9.75;4.15;;;;;;;12.87;88.14;98655.88;4385345;32;20043;-69
2022/09/08 03:34:09;;;;;;;7.97;3.50;;;;;;;13.50;89.55;98749.25;4381894;32;20566;-69
2022/09/08 03:36:36;;;;;;;7.80;4.18;;;;;;;13.49;91.03;98753.06;4384373;32;20043;-68
2022/09/08 03:39:02;;;;;;;13.62;3.42;;;;;;;13.43;89.30;98717.09;4384825;32;20085;-68
2022/09/08 03:41:28;;;;;;;10.63;3.47;;;;;;;13.20;91.83;98732.00;4384049;32;20062;-69
2022/09/08 03:43:55;;;;;;;12.57;3.78;;;;;;;13.41;91.56;98763.34;4385065;32;20035;-69
2022/09/08 03:46:22;;;;;;;10.10;3.33;;;;;;;13.74;90.27;98766.50;4367071;32;20043;-68
2022/09/08 03:48:54;;;;;;;8.07;4.00;;;;;;;13.28;90.45;98731.44;4375795;32;20061;-69
2022/09/08 03:51:24;;;;;;;10.93;4.05;;;;;;;13.43;92.27;98760.38;4384436;32;20064;-68
2022/09/08 03:53:52;;;;;;;15.07;4.12;;;;;;;13.71;89.06;98728.34;4384408;32;20416;-68
2022/09/08 03:56:19;;;;;;;8.15;4.55;;;;;;;13.75;88.47;98724.81;4395316;32;20092;-68
2022/09/08 03:58:46;;;;;;;5.25;3.45;;;;;;;13.69;92.06;98763.81;4415944;32;20050;-69
2022/09/08 04:01:17;;;;;;;5.07;3.40;;;;;;;13.32;95.49;98751.44;4423032;32;20055;-69
2022/09/08 04:03:44;;;;;;;19.40;5.00;;;;;;;12.98;96.53;98689.87;4416694;32;20136;-69
2022/09/08 04:06:12;;;;;;;14.27;3.85;;;;;;;13.15;100.00;98775.28;4414327;32;20424;-69
2022/09/08 04:08:38;;;;;;;16.50;3.90;;;;;;;12.51;100.00;98669.44;4401660;32;20100;-69
2022/09/08 04:11:06;;;;;;;9.05;4.07;;;;;;;13.21;99.58;98766.87;4402974;32;20039;-68
2022/09/08 04:13:32;;;;;;;16.17;4.12;;;;;;;13.26;100.00;98782.28;4371596;32;20039;-69
2022/09/08 04:15:59;;;;;;;15.02;4.50;;;;;;;13.21;100.00;98757.94;4326382;33;20080;-69
2022/09/08 04:18:25;;;;;;;10.02;4.05;;;;;;;13.16;100.00;98766.06;4333916;33;20423;-69
2022/09/08 04:20:57;;;;;;;9.45;3.62;;;;;;;13.05;100.00;98746.34;4343037;33;20052;-69
2022/09/08 04:23:23;;;;;;;14.75;4.07;;;;;;;13.27;99.60;98762.25;4342418;33;20071;-69
2022/09/08 04:26:04;;;;;;;9.15;4.03;;;;;;;13.00;100.00;98749.91;4342782;33;20067;-69
2022/09/08 04:28:32;;;;;;;10.85;4.25;;;;;;;13.00;100.00;98758.00;4342653;33;20052;-68
2022/09/08 04:31:02;;;;;;;6.70;3.85;;;;;;;12.91;100.00;98765.03;4342545;33;20033;-68
2022/09/08 04:33:29;;;;;;;10.15;4.28;;;;;;;13.04;100.00;98753.66;4342589;33;20024;-68
2022/09/08 04:35:56;;;;;;;7.35;3.75;;;;;;;13.02;100.00;98747.72;4327005;33;20048;-69
2022/09/08 04:38:22;;;;;;;5.43;3.30;;;;;;;12.62;100.00;98729.63;4328005;33;20399;-69
2022/09/08 04:40:49;;;;;;;10.43;3.28;;;;;;;12.65;100.00;98712.87;4372189;32;20063;-69
2022/09/08 04:43:15;;;;;;;14.45;3.65;;;;;;;12.80;100.00;98758.00;4386508;32;20039;-69
2022/09/08 04:45:41;;;;;;;10.20;4.18;;;;;;;13.02;100.00;98766.66;4429607;32;20029;-69
2022/09/08 04:48:08;;;;;;;15.82;3.95;;;;;;;12.93;100.00;98733.13;4476683;32;20041;-67
2022/09/08 04:50:34;;;;;;;10.57;4.45;;;;;;;13.18;100.00;98763.91;4478849;32;20071;-68
2022/09/08 04:53:00;;;;;;;10.38;3.22;;;;;;;12.98;100.00;98765.56;4481747;32;20055;-69
2022/09/08 04:55:27;;;;;;;12.63;4.22;;;;;;;12.86;100.00;98746.09;4481202;32;20370;-68
2022/09/08 04:57:53;;;;;;;6.03;3.28;;;;;;;13.01;100.00;98764.22;4472336;32;20067;-74
2022/09/08 05:00:19;;;;;;;11.68;3.78;;;;;;;13.04;100.00;98764.47;4479774;32;20067;-69
2022/09/08 05:02:48;;;;;;;13.40;4.20;;;;;;;12.90;100.00;98741.78;4480863;32;20037;-69
2022/09/08 05:05:15;;;;;;;7.62;3.97;;;;;;;12.90;100.00;98702.06;4481708;32;20045;-69
2022/09/08 05:07:41;;;;;;;9.15;3.50;;;;;;;13.38;100.00;98758.47;4469003;32;20041;-69
2022/09/08 05:10:07;;;;;;;21.75;4.05;;;;;;;13.44;100.00;98762.78;4465225;32;20029;-73
2022/09/08 05:12:34;;;;;;;9.65;4.28;;;;;;;13.50;100.00;98749.25;4464490;32;20058;-69
2022/09/08 05:15:00;;;;;;;7.25;3.65;;;;;;;13.31;100.00;98757.94;4465839;32;20037;-68
2022/09/08 05:17:29;;;;;;;21.00;4.03;;;;;;;13.48;100.00;98756.84;4464694;32;20358;-68
2022/09/08 05:19:55;;;;;;;7.25;3.85;;;;;;;13.30;100.00;98756.31;4465986;32;20045;-69
2022/09/08 05:22:22;;;;;;;8.25;3.70;;;;;;;13.17;100.00;98754.19;4471922;32;20088;-69
2022/09/08 05:24:48;;;;;;;5.87;3.28;;;;;;;12.79;100.00;98707.75;4480289;32;20409;-70
2022/09/08 05:27:14;;;;;;;12.60;4.05;;;;;;;13.59;100.00;98769.25;4481798;32;20040;-70
2022/09/08 05:29:41;;;;;;;12.45;4.07;;;;;;;13.63;100.00;98762.19;4480670;32;20370;-69
2022/09/08 05:32:07;;;;;;;10.48;3.28;;;;;;;13.58;100.00;98757.63;4472148;32;20042;-74
2022/09/08 05:34:33;;;;;;;13.32;5.45;;;;;;;13.57;100.00;98760.59;4474658;32;20049;-69
2022/09/08 05:37:00;;;;;;;10.63;3.72;;;;;;;13.72;100.00;98757.84;4481233;32;20033;-69
2022/09/08 05:39:26;;;;;;;20.35;5.10;;;;;;;13.42;100.00;98716.28;4481282;32;20392;-70
2022/09/08 05:41:52;;;;;;;9.27;3.87;;;;;;;13.36;100.00;98722.78;4446680;32;20037;-69
2022/09/08 05:44:19;;;;;;;14.55;4.82;;;;;;;13.57;100.00;98712.72;4440323;32;20110;-73
2022/09/08 05:46:45;;;;;;;9.00;4.15;;;;;;;13.76;100.00;98753.47;4444525;32;20037;-69
2022/09/08 05:49:11;;;;;;;10.90;3.85;;;;;;;13.65;100.00;98751.91;4445538;32;20063;-70
2022/09/08 05:51:38;;;;;;;8.82;4.20;;;;;;;14.24;97.44;98757.56;4445114;32;20075;-69
2022/09/08 05:54:04;;;;;;;11.10;3.55;;;;;;;13.98;100.00;98757.72;4429651;32;20033;-69
2022/09/08 05:56:31;;;;;;;14.10;4.10;;;;;;;14.17;100.00;98763.31;4428921;32;20058;-74
2022/09/08 05:58:58;;;;;;;10.05;4.05;;;;;;;13.87;100.00;98737.22;4428543;32;20038;-69
2022/09/08 06:01:27;;;;;;;9.07;3.53;;;;;;;13.73;97.20;98685.59;4430910;32;20064;-69
2022/09/08 06:03:55;;;;;;;9.48;4.35;;;;;;;13.97;100.00;98739.84;4399784;32;20060;-69
2022/09/08 06:06:21;;;;;;;14.55;4.43;;;;;;;14.46;99.11;98782.34;4400967;32;20031;-70
2022/09/08 06:08:48;;;;;;;15.27;3.03;;;;;;;14.31;96.82;98771.59;4398882;32;20365;-68
2022/09/08 06:11:15;;;;;;;10.77;3.35;;;;;;;14.30;97.06;98740.22;4401377;32;20580;-70
2022/09/08 06:13:41;;;;;;;11.90;4.22;;;;;;;14.28;100.00;98739.66;4401463;32;20035;-69
2022/09/08 06:16:11;;;;;;;15.68;4.10;;;;;;;14.57;98.35;98766.00;4389117;32;20061;-69
2022/09/08 06:18:41;;;;;;;13.20;4.40;;;;;;;14.52;98.43;98732.47;4360507;32;20389;-73
2022/09/08 06:21:11;;;;;;;9.38;4.28;;;;;;;14.62;97.08;98736.22;4370503;32;20024;-69
2022/09/08 06:23:37;;;;;;;12.35;3.70;;;;;;;14.66;98.57;98729.94;4370998;32;20032;-70
2022/09/08 06:26:30;;;;;;;23.02;4.03;;;;;;;15.03;96.99;98757.53;4397196;32;20380;-69
2022/09/08 06:29:26;;;;;;;16.37;4.85;;;;;;;15.34;95.05;98762.66;4370998;32;20834;-69
2022/09/08 06:32:02;;;;;;;7.95;4.50;;;;;;;15.15;95.22;98751.72;4369921;32;20061;-76
2022/09/08 06:34:37;;;;;;;12.02;3.72;;;;;;;15.42;94.23;98753.88;4355747;32;20090;-70
2022/09/08 06:37:07;;;;;;;11.93;3.92;;;;;;;14.92;97.57;98735.13;4341354;33;20044;-70
2022/09/08 06:39:54;;;;;;;13.55;3.60;;;;;;;14.59;nan;98693.41;4340979;33;20044;-69
2022/09/08 06:42:38;;;;;;;7.80;3.42;;;;;;;15.01;97.64;98748.88;4353971;32;20456;-69
2022/09/08 06:45:14;;;;;;;15.73;3.17;;;;;;;15.46;95.66;98782.06;4341167;33;20065;-70
2022/09/08 06:47:47;;;;;;;10.95;3.37;;;;;;;15.70;94.62;98789.37;4340636;33;20041;-71
2022/09/08 06:50:15;;;;;;;15.45;3.70;;;;;;;15.62;94.00;98759.09;4326407;33;20028;-71
2022/09/08 06:52:50;;;;;;;14.68;3.72;;;;;;;15.88;91.79;98794.09;4311455;33;20063;-70
2022/09/08 06:55:35;;;;;;;23.85;5.35;;;;;;;15.74;89.87;98761.38;4280431;33;20037;-71
2022/09/08 06:58:20;;;;;;;8.18;3.70;;;;;;;15.80;89.24;98756.72;4286204;33;20333;-70
2022/09/08 07:01:21;;;;;;;9.88;4.20;;;;;;;15.81;88.88;98788.19;4291568;33;20049;-72
2022/09/08 07:04:12;;;;;;;8.57;4.00;;;;;;;16.12;87.29;98804.13;4297176;33;20336;-70
2022/09/08 07:06:51;;;;;;;12.60;4.95;;;;;;;15.86;87.80;98774.56;4281163;33;20057;-71
2022/09/08 07:09:59;;;;;;;19.73;4.15;;;;;;;16.24;85.67;98809.94;4282358;33;20037;-70
2022/09/08 07:12:35;;;;;;;11.30;4.37;;;;;;;16.54;83.96;98805.16;4266621;33;20400;-71
2022/09/08 07:15:46;;;;;;;15.90;4.22;;;;;;;16.70;84.46;98803.84;4266335;33;20432;-73
2022/09/08 07:18:23;;;;;;;9.02;3.95;;;;;;;16.38;87.46;98769.25;4225884;34;20054;-70
2022/09/08 07:20:49;;;;;;;11.35;4.10;;;;;;;16.54;83.33;98788.84;4210434;34;20023;-71
2022/09/08 07:23:23;;;;;;;11.50;3.47;;;;;;;16.63;86.30;98791.72;4211795;34;20191;-70
2022/09/08 07:26:07;;;;;;;10.32;4.78;;;;;;;16.66;85.68;98785.69;4227953;33;20071;-70
2022/09/08 07:28:43;;;;;;;13.82;4.25;;;;;;;16.98;81.52;98749.56;4236263;33;20048;-74
2022/09/08 07:31:21;;;;;;;10.57;3.65;;;;;;;16.93;82.81;98776.84;4273257;33;20051;-71
2022/09/08 07:33:52;;;;;;;11.50;3.85;;;;;;;17.41;80.81;98771.09;4281420;33;20056;-70
2022/09/08 07:36:22;;;;;;;14.20;4.18;;;;;;;17.25;81.84;98765.13;4279865;33;20055;-72
2022/09/08 07:38:54;;;;;;;13.57;3.80;;;;;;;17.12;79.83;98759.66;4308951;33;20040;-71
2022/09/08 07:41:35;;;;;;;18.62;4.28;;;;;;;16.82;82.27;98699.25;4310935;33;20021;-70
2022/09/08 07:44:11;;;;;;;7.62;3.70;;;;;;;17.59;77.83;98779.47;4309168;33;20037;-71
2022/09/08 07:47:01;;;;;;;9.82;3.75;;;;;;;17.78;73.49;98761.09;4310966;33;20036;-70
2022/09/08 07:49:56;;;;;;;19.30;5.45;;;;;;;17.42;75.59;98731.06;4320097;33;20051;-74
2022/09/08 07:52:50;;;;;;;9.35;3.40;;;;;;;18.07;75.25;98756.47;4334611;33;20053;-70
2022/09/08 07:55:21;;;;;;;20.92;3.53;;;;;;;17.75;71.38;98756.25;4325122;33;20438;-70
2022/09/08 07:57:58;;;;;;;5.97;3.72;;;;;;;17.99;73.16;98721.78;4327814;33;20032;-69
2022/09/08 08:01:02;;;;;;;9.65;4.10;;;;;;;18.55;70.02;98750.44;4324073;33;20087;-69
2022/09/08 08:03:31;;;;;;;22.80;3.37;;;;;;;18.62;71.21;98760.91;4308153;33;20492;-71
2022/09/08 08:06:21;;;;;;;9.65;4.00;;;;;;;18.44;70.40;98760.78;4324169;33;20177;-70
2022/09/08 08:09:10;;;;;;;8.52;3.83;;;;;;;18.57;70.34;98752.88;4309071;33;20037;-69
2022/09/08 08:11:48;;;;;;;15.65;4.03;;;;;;;18.86;67.71;98750.56;4293301;33;20093;-71
2022/09/08 08:14:23;;;;;;;18.12;4.00;;;;;;;19.11;65.53;98767.38;4296395;33;20287;-70
2022/09/08 08:17:09;;;;;;;14.75;4.03;;;;;;;18.67;69.20;98764.34;4284735;33;20486;-68
2022/09/08 08:20:21;;;;;;;6.95;3.42;;;;;;;18.83;69.89;98761.25;4309924;33;20063;-70
2022/09/08 08:23:09;;;;;;;10.73;3.42;;;;;;;19.23;65.39;98751.22;4294118;33;20071;-70
2022/09/08 08:25:58;;;;;;;17.50;4.65;;;;;;;18.79;68.14;98720.13;4296032;33;20067;-70
2022/09/08 08:28:24;;;;;;;12.48;3.50;;;;;;;19.08;65.79;98757.06;4298856;33;20116;-70
2022/09/08 08:31:12;;;;;;;10.55;3.53;;;;;;;18.76;67.54;98690.75;4316661;33;20027;-70
2022/09/08 08:33:45;;;;;;;14.57;3.85;;;;;;;19.73;65.97;98738.41;4339428;33;20036;-76
2022/09/08 08:36:15;;;;;;;7.97;3.78;;;;;;;19.24;67.79;98725.56;4340335;33;20779;-71
2022/09/08 08:38:45;;;;;;;15.27;3.87;;;;;;;19.26;64.17;98746.25;4340000;33;20450;-69
2022/09/08 08:41:17;;;;;;;14.60;3.97;;;;;;;19.35;65.74;98758.03;4338509;33;20036;-69
2022/09/08 08:44:00;;;;;;;8.73;3.97;;;;;;;19.99;63.45;98756.81;4378815;32;20043;-72
2022/09/08 08:46:35;;;;;;;12.45;3.78;;;;;;;19.69;65.21;98753.81;4384953;32;20060;-70
2022/09/08 08:49:29;;;;;;;11.48;4.05;;;;;;;19.70;63.68;98766.34;4385674;32;20039;-69
2022/09/08 08:52:14;;;;;;;6.97;3.53;;;;;;;19.98;62.68;98774.34;4400876;32;20052;-68
2022/09/08 08:54:56;;;;;;;16.00;4.03;;;;;;;19.85;64.64;98768.69;4384238;32;20057;-74
2022/09/08 08:57:32;;;;;;;14.73;3.70;;;;;;;19.86;64.11;98770.28;4341528;33;20036;-70
2022/09/08 09:00:04;;;;;;;12.73;5.82;;;;;;;19.92;63.42;98769.00;4341011;33;20398;-69
2022/09/08 09:02:46;;;;;;;12.68;3.55;;;;;;;19.91;62.94;98734.63;4341281;33;20036;-74
2022/09/08 09:05:26;;;;;;;11.65;3.10;;;;;;;20.03;62.83;98760.53;4335906;33;20419;-69
2022/09/08 09:08:21;;;;;;;22.37;3.70;;;;;;;19.44;63.83;98671.50;4340946;33;20044;-69
2022/09/08 09:11:25;;;;;;;9.52;3.70;;;;;;;20.13;62.93;98760.19;4341950;33;20040;-68
2022/09/08 09:14:10;;;;;;;9.27;3.87;;;;;;;19.71;61.44;98762.50;4314310;33;20126;-69
2022/09/08 09:17:12;;;;;;;12.20;3.58;;;;;;;20.06;59.76;98762.62;4327732;33;20436;-69
2022/09/08 09:19:57;;;;;;;9.40;4.10;;;;;;;19.91;61.96;98745.56;4330323;33;20032;-69
2022/09/08 09:22:40;;;;;;;6.00;2.90;;;;;;;20.22;60.84;98714.56;4324072;33;20047;-70
2022/09/08 09:25:30;;;;;;;7.22;2.92;;;;;;;20.72;58.90;98748.03;4325070;33;20037;-69
2022/09/08 09:28:22;;;;;;;7.40;3.55;;;;;;;20.35;59.19;98753.00;4330905;32;20040;-69
2022/09/08 09:31:13;;;;;;;5.72;3.42;;;;;;;20.31;59.15;98748.16;4343349;32;20062;-69
2022/09/08 09:34:04;;;;;;;9.75;3.75;;;;;;;20.75;58.35;98744.63;4324259;33;20113;-70
2022/09/08 09:36:52;;;;;;;7.57;4.13;;;;;;;20.99;57.89;98736.69;4332455;32;20035;-69
2022/09/08 09:39:42;;;;;;;9.38;3.08;;;;;;;20.85;57.27;98708.72;4350743;32;20128;-69
2022/09/08 09:42:18;;;;;;;10.40;3.58;;;;;;;21.15;57.18;98742.44;4370890;32;20035;-71
2022/09/08 09:45:17;;;;;;;10.60;3.67;;;;;;;21.13;56.23;98711.84;4376517;32;20055;-68
2022/09/08 09:48:25;;;;;;;12.43;3.35;;;;;;;21.49;55.14;98718.00;4386324;32;20112;-72
2022/09/08 09:50:57;;;;;;;6.30;3.25;;;;;;;21.51;54.89;98674.69;4367037;32;20060;-68
2022/09/08 09:54:02;;;;;;;4.90;3.40;;;;;;;21.60;54.14;98735.69;4381476;32;20028;-74
2022/09/08 09:56:52;;;;;;;9.57;4.47;;;;;;;21.88;54.70;98730.53;4336855;33;20070;-69
2022/09/08 09:59:22;;;;;;;11.60;3.53;;;;;;;21.84;52.86;98737.00;4341287;33;20060;-70
2022/09/08 10:01:52;;;;;;;11.10;5.07;;;;;;;21.72;54.24;98733.03;4339661;33;20058;-69
2022/09/08 10:04:56;;;;;;;8.05;3.90;;;;;;;21.81;51.66;98699.31;4340889;32;20036;-74
2022/09/08 10:07:22;;;;;;;6.47;3.28;;;;;;;21.70;53.29;98729.84;4346250;32;20411;-69
2022/09/08 10:10:14;;;;;;;18.92;3.80;;;;;;;21.28;53.35;98724.19;4351446;32;20104;-71
2022/09/08 10:13:05;;;;;;;8.23;3.50;;;;;;;21.98;52.41;98723.84;4366786;32;20094;-69
2022/09/08 10:16:05;;;;;;;9.00;3.65;;;;;;;21.65;53.20;98716.34;4368107;32;20035;-70
2022/09/08 10:18:59;;;;;;;16.48;3.87;;;;;;;21.76;53.85;98714.00;4367087;32;20044;-71
2022/09/08 10:22:00;;;;;;;16.23;4.47;;;;;;;21.96;52.30;98709.69;4367448;32;20073;-70
2022/09/08 10:24:29;;;;;;;6.55;3.28;;;;;;;22.26;52.43;98712.37;4372425;32;20053;-73
2022/09/08 10:27:24;;;;;;;6.85;3.60;;;;;;;21.88;52.77;98686.69;4382624;32;20082;-70
2022/09/08 10:30:11;;;;;;;11.05;3.12;;;;;;;21.56;54.70;98718.31;4397325;32;20032;-68
2022/09/08 10:32:53;;;;;;;16.55;4.03;;;;;;;21.29;53.30;98686.69;4445632;32;20368;-68
2022/09/08 10:35:41;;;;;;;;;;;;;;;21.63;55.13;98718.59;4442975;32;20110;-70
2022/09/08 10:38:45;;;;;;;6.37;3.50;;;;;;;21.60;56.50;98711.03;4442867;32;20309;-69
2022/09/08 10:41:41;;;;;;;8.43;4.03;;;;;;;21.65;54.99;98705.37;4443781;32;20037;-68
2022/09/08 10:44:53;;;;;;;7.57;3.45;;;;;;;21.94;52.98;98703.75;4409950;32;20052;-69
2022/09/08 10:47:25;;;;;;;;;;;;;;;22.31;52.46;98712.19;4381179;32;20529;-70
2022/09/08 10:50:07;;;;;;;;;;;;;;;22.85;51.45;98701.19;4416005;32;19959;-69
2022/09/08 10:52:54;;;;;;;10.70;3.40;;;;;;;22.42;50.64;98688.69;4413363;32;20165;-68
2022/09/08 10:55:39;;;;;;;12.27;4.18;;;;;;;22.41;52.15;98698.06;4414982;32;20064;-71
2022/09/08 10:58:33;;;;;;;9.27;4.45;;;;;;;22.23;51.42;98691.09;4413471;32;20064;-70
2022/09/08 11:01:16;;;;;;;17.45;3.80;;;;;;;21.61;54.29;98660.59;4411215;32;20181;-71
2022/09/08 11:04:08;;;;;;;5.22;3.05;;;;;;;22.42;51.80;98679.69;4395492;32;20053;-71
2022/09/08 11:06:41;;;;;;;9.63;3.08;;;;;;;21.69;51.48;98606.87;4410147;32;20037;-73
2022/09/08 11:09:18;;;;;;;21.35;5.25;;;;;;;22.52;50.26;98660.03;4409632;32;20084;-70
2022/09/08 11:11:45;;;;;;;8.05;3.85;;;;;;;23.11;50.50;98680.88;4385647;32;20073;-69
2022/09/08 11:14:52;;;;;;;10.57;2.80;;;;;;;23.43;48.71;98685.84;4376329;32;20054;-74
2022/09/08 11:17:24;;;;;;;15.32;3.33;;;;;;;23.92;46.90;98675.59;4394939;32;20458;-69
2022/09/08 11:19:50;;;;;;;;;;;;;;;23.36;47.36;98656.19;4399708;32;20039;-73
2022/09/08 11:22:29;;;;;;;5.95;3.15;;;;;;;23.42;47.07;98684.22;4404084;32;19947;-70
2022/09/08 11:25:10;;;;;;;16.20;3.37;;;;;;;24.33;45.53;98655.53;4408338;32;20030;-67
2022/09/08 11:27:48;;;;;;;9.02;3.33;;;;;;;23.65;46.41;98648.84;4402755;32;20053;-70
2022/09/08 11:30:24;;;;;;;5.57;3.12;;;;;;;24.80;44.52;98646.59;4400871;32;20049;-69
2022/09/08 11:33:20;;;;;;;8.63;4.00;;;;;;;24.72;44.84;98683.34;4370268;32;20027;-69
2022/09/08 11:35:55;;;;;;;8.52;3.67;;;;;;;24.03;44.55;98675.94;4397457;32;20039;-69
2022/09/08 11:38:56;;;;;;;4.45;3.72;;;;;;;23.90;45.40;98666.91;4398500;32;20073;-69
2022/09/08 11:41:37;;;;;;;6.65;3.97;;;;;;;24.27;45.02;98675.03;4394760;32;20039;-69
2022/09/08 11:44:37;;;;;;;5.80;2.87;;;;;;;24.11;45.38;98658.47;4412982;32;20026;-68
2022/09/08 11:47:19;;;;;;;7.05;3.12;;;;;;;23.93;45.95;98671.72;4411255;32;20056;-69
2022/09/08 11:50:04;;;;;;;;;;;;;;;24.36;46.01;98632.81;4410747;32;20056;-70
2022/09/08 11:52:38;;;;;;;6.05;3.10;;;;;;;23.73;44.89;98650.66;4411905;32;19929;-69
2022/09/08 11:55:30;;;;;;;18.42;3.15;;;;;;;23.71;45.01;98636.44;4412830;32;20054;-69
2022/09/08 11:58:12;;;;;;;5.62;3.42;;;;;;;24.01;45.73;98660.91;4413644;32;21505;-70
2022/09/08 12:00:51;;;;;;;5.87;3.58;;;;;;;24.12;46.14;98640.00;4414012;32;20030;-69
2022/09/08 12:03:57;;;;;;;11.32;2.75;;;;;;;24.82;45.90;98649.78;4404620;32;20253;-72
2022/09/08 12:06:45;;;;;;;11.95;3.78;;;;;;;25.04;44.98;98661.34;4360546;32;20058;-73
2022/09/08 12:09:49;;;;;;;6.72;2.85;;;;;;;24.56;45.06;98647.50;4417754;32;20392;-69
2022/09/08 12:12:34;;;;;;;2.85;2.60;;;;;;;24.29;45.87;98645.22;4430524;32;20092;-69